Time;durP1;ratioP1;P1;durP2;ratioP2;P2;SDS_P1;SDS_P2;PMS_P1;PMS_P2;Temp;Humidity;BMP_temperature;BMP_pressure;BME280_temperature;BME280_humidity;BME280_pressure;Samples;Min_cycle;Max_cycle;Signal;HPM_P1;HPM_P2
2022/10/28 00:00:51;;;;;;;;;;;;;;;9.96;100.00;99160.38;7391161;19;19919;-60
2022/10/28 00:03:24;;;;;;;;;;;;;;;9.68;100.00;99172.94;7393318;19;20250;-54
2022/10/28 00:05:57;;;;;;;;;;;;;;;9.53;100.00;99155.16;7393271;19;19923;-53
2022/10/28 00:08:33;;;;;;;;;;;;;;;9.56;100.00;99162.91;7387175;19;20513;-53
2022/10/28 00:11:09;;;;;;;;;;;;;;;9.87;100.00;99168.63;7392590;19;19921;-52
2022/10/28 00:13:42;;;;;;;;;;;;;;;9.78;100.00;99155.91;7389113;19;19929;-54
2022/10/28 00:16:18;;;;;;;;;;;;;;;9.93;100.00;99157.88;7392220;19;19927;-49
2022/10/28 00:18:52;;;;;;;;;;;;;;;10.02;100.00;99157.47;7391448;19;19934;-49
2022/10/28 00:21:27;;;;;;;;;;;;;;;9.90;100.00;99152.75;7385565;19;19925;-54
2022/10/28 00:24:02;;;;;;;;;;;;;;;10.03;100.00;99154.78;7389050;19;19990;-52
2022/10/28 00:26:36;;;;;;;;;;;;;;;9.94;100.00;99156.94;7388463;19;20248;-51
2022/10/28 00:29:11;;;;;;;;;;;;;;;9.91;100.00;99152.69;7390911;19;19919;-52
2022/10/28 00:31:44;;;;;;;;;;;;;;;9.99;100.00;99147.09;7390465;19;19925;-50
2022/10/28 00:34:18;;;;;;;;;;;;;;;10.05;100.00;99138.94;7386783;19;19926;-52
2022/10/28 00:36:51;;;;;;;;;;;;;;;9.98;100.00;99127.84;7391155;19;20247;-51
2022/10/28 00:39:27;;;;;;;;;;;;;;;9.71;100.00;99141.31;7387433;19;19922;-55
2022/10/28 00:42:02;;;;;;;;;;;;;;;9.84;100.00;99124.09;7391303;19;20228;-52
2022/10/28 00:44:50;;;;;;;;;;;;;;;9.93;100.00;99121.09;7390304;19;19942;-55
2022/10/28 00:47:26;;;;;;;;;;;;;;;9.89;100.00;99120.34;7386488;19;19919;-52
2022/10/28 00:50:00;;;;;;;;;;;;;;;9.72;100.00;99107.09;7388567;19;19915;-52
2022/10/28 00:52:35;;;;;;;;;;;;;;;9.87;100.00;99100.31;7388686;19;19928;-53
2022/10/28 00:55:12;;;;;;;;;;;;;;;10.04;100.00;99092.56;7389598;19;19917;-54
2022/10/28 00:57:47;;;;;;;;;;;;;;;10.07;100.00;99102.94;7383708;19;20331;-49
2022/10/28 01:00:20;;;;;;;;;;;;;;;9.80;100.00;99099.75;7385598;19;20311;-51
2022/10/28 01:02:54;;;;;;;;;;;;;;;9.88;100.00;99094.13;7383565;19;19923;-54
2022/10/28 01:05:28;;;;;;;;;;;;;;;9.81;100.00;99090.09;7386436;19;20355;-52
2022/10/28 01:08:04;;;;;;;;;;;;;;;9.79;100.00;99094.56;7384541;19;20376;-54
2022/10/28 01:10:49;;;;;;;;;;;;;;;9.94;100.00;99080.75;7380826;19;20004;-52
2022/10/28 01:13:25;;;;;;;;;;;;;;;10.02;100.00;99083.88;7385148;19;19979;-52
2022/10/28 01:16:03;;;;;;;;;;;;;;;10.08;100.00;99088.88;7384028;19;20226;-52
2022/10/28 01:18:44;;;;;;;;;;;;;;;10.09;100.00;99090.56;7389742;19;19925;-52
2022/10/28 01:21:32;;;;;;;;;;;;;;;10.13;100.00;99077.25;7383898;19;20276;-54
2022/10/28 01:24:13;;;;;;;;;;;;;;;10.09;100.00;99085.31;7386477;19;19942;-52
2022/10/28 01:27:05;;;;;;;;;;;;;;;10.13;100.00;99077.25;7385823;19;19995;-57
2022/10/28 01:30:08;;;;;;;;;;;;;;;10.18;100.00;99074.41;7385722;19;20291;-54
2022/10/28 01:32:47;;;;;;;;;;;;;;;10.04;100.00;99076.81;7384921;19;20245;-52
2022/10/28 01:35:24;;;;;;;;;;;;;;;10.10;100.00;99072.13;7385187;19;19918;-51
2022/10/28 01:38:03;;;;;;;;;;;;;;;10.21;100.00;99063.75;7383989;19;19914;-50
2022/10/28 01:40:39;;;;;;;;;;;;;;;10.26;100.00;99059.97;7380246;19;19915;-49
2022/10/28 01:43:19;;;;;;;;;;;;;;;10.41;100.00;99053.19;7385110;19;20295;-51
2022/10/28 01:45:55;;;;;;;;;;;;;;;10.30;100.00;99048.44;7378143;19;19951;-48
2022/10/28 01:48:34;;;;;;;;;;;;;;;10.50;100.00;99047.47;7384917;19;19960;-52
2022/10/28 01:51:10;;;;;;;;;;;;;;;10.33;100.00;99047.44;7381332;19;19948;-52
2022/10/28 01:53:44;;;;;;;;;;;;;;;10.36;100.00;99047.28;7383197;19;19970;-51
2022/10/28 01:56:19;;;;;;;;;;;;;;;10.40;100.00;99047.06;7384930;19;19940;-51
2022/10/28 01:58:53;;;;;;;;;;;;;;;10.55;100.00;99040.25;7385004;19;20441;-51
2022/10/28 02:01:27;;;;;;;;;;;;;;;10.76;100.00;99050.59;7383010;19;20271;-53
2022/10/28 02:04:03;;;;;;;;;;;;;;;10.53;100.00;99049.97;7378780;19;19919;-52
2022/10/28 02:06:37;;;;;;;;;;;;;;;10.70;100.00;99045.63;7387362;19;19928;-49
2022/10/28 02:09:15;;;;;;;;;;;;;;;10.45;100.00;99052.97;7385960;19;19915;-56
2022/10/28 02:12:08;;;;;;;;;;;;;;;10.62;100.00;99041.69;7388634;19;19919;-52
2022/10/28 02:14:53;;;;;;;;;;;;;;;10.43;100.00;99040.81;7378691;19;19918;-51
2022/10/28 02:17:31;;;;;;;;;;;;;;;10.48;100.00;99042.28;7384381;19;19919;-51
2022/10/28 02:20:11;;;;;;;;;;;;;;;10.72;100.00;99041.16;7377372;19;19971;-53
2022/10/28 02:22:48;;;;;;;;;;;;;;;10.54;100.00;99038.53;7382867;19;20229;-51
2022/10/28 02:25:24;;;;;;;;;;;;;;;10.59;100.00;99034.75;7377492;19;19911;-56
2022/10/28 02:28:01;;;;;;;;;;;;;;;10.68;100.00;99036.09;7378758;19;20323;-52
2022/10/28 02:30:38;;;;;;;;;;;;;;;10.48;100.00;99038.84;7381952;19;19997;-55
2022/10/28 02:33:15;;;;;;;;;;;;;;;10.57;100.00;99034.00;7385118;19;19925;-55
2022/10/28 02:35:54;;;;;;;;;;;;;;;10.38;100.00;99034.91;7383902;19;19926;-49
2022/10/28 02:38:31;;;;;;;;;;;;;;;10.57;100.00;99031.34;7383074;19;20424;-49
2022/10/28 02:41:05;;;;;;;;;;;;;;;10.71;100.00;99028.06;7383320;19;20017;-52
2022/10/28 02:43:40;;;;;;;;;;;;;;;10.61;100.00;99026.78;7378862;19;19925;-52
2022/10/28 02:46:13;;;;;;;;;;;;;;;10.34;100.00;99022.84;7381415;19;19982;-51
2022/10/28 02:48:49;;;;;;;;;;;;;;;10.37;100.00;99012.19;7378742;19;19940;-57
2022/10/28 02:51:27;;;;;;;;;;;;;;;10.36;100.00;99011.31;7385175;19;19915;-55
2022/10/28 02:54:02;;;;;;;;;;;;;;;10.62;100.00;99008.31;7386073;19;19943;-54
2022/10/28 02:56:36;;;;;;;;;;;;;;;10.54;100.00;99012.22;7383412;19;20401;-55
2022/10/28 02:59:09;;;;;;;;;;;;;;;10.65;100.00;99004.69;7387435;19;20327;-53
2022/10/28 03:01:42;;;;;;;;;;;;;;;10.42;100.00;99010.19;7379390;19;19911;-52
2022/10/28 03:04:15;;;;;;;;;;;;;;;10.56;100.00;98998.09;7385355;19;19951;-53
2022/10/28 03:06:50;;;;;;;;;;;;;;;10.76;100.00;99002.38;7387666;19;19939;-53
2022/10/28 03:09:25;;;;;;;;;;;;;;;10.42;100.00;99004.91;7388748;19;19922;-54
2022/10/28 03:11:58;;;;;;;;;;;;;;;10.48;100.00;99000.22;7387223;19;19923;-56
2022/10/28 03:14:31;;;;;;;;;;;;;;;10.40;100.00;98991.00;7388263;19;19919;-52
2022/10/28 03:17:03;;;;;;;;;;;;;;;10.51;100.00;98999.25;7393831;19;19915;-53
2022/10/28 03:19:36;;;;;;;;;;;;;;;10.43;100.00;98991.72;7393197;19;19915;-54
2022/10/28 03:22:12;;;;;;;;;;;;;;;10.58;100.00;98995.38;7388592;19;19919;-54
2022/10/28 03:24:44;;;;;;;;;;;;;;;10.31;100.00;98997.53;7393188;19;19948;-53
2022/10/28 03:27:17;;;;;;;;;;;;;;;10.29;100.00;98991.50;7389312;19;20401;-59
2022/10/28 03:29:50;;;;;;;;;;;;;;;10.25;100.00;98986.47;7392800;19;20318;-54
2022/10/28 03:32:23;;;;;;;;;;;;;;;10.39;100.00;98990.16;7392739;19;19915;-55
2022/10/28 03:34:56;;;;;;;;;;;;;;;10.49;100.00;98993.19;7384229;19;19946;-54
2022/10/28 03:37:31;;;;;;;;;;;;;;;10.57;100.00;98989.28;7388933;19;19989;-54
2022/10/28 03:40:06;;;;;;;;;;;;;;;10.38;100.00;98985.81;7389463;19;19918;-60
2022/10/28 03:42:39;;;;;;;;;;;;;;;10.41;100.00;98982.19;7390987;19;19923;-54
2022/10/28 03:45:13;;;;;;;;;;;;;;;10.53;100.00;98976.34;7391111;19;20227;-52
2022/10/28 03:47:47;;;;;;;;;;;;;;;10.38;100.00;98990.22;7387329;19;19952;-53
2022/10/28 03:50:20;;;;;;;;;;;;;;;10.50;100.00;98993.13;7391824;19;19919;-52
2022/10/28 03:52:56;;;;;;;;;;;;;;;10.32;100.00;98985.22;7385941;19;20003;-54
2022/10/28 03:55:28;;;;;;;;;;;;;;;10.43;100.00;98988.22;7393674;19;19943;-52
2022/10/28 03:58:01;;;;;;;;;;;;;;;10.59;100.00;98978.69;7394133;19;19923;-52
2022/10/28 04:00:34;;;;;;;;;;;;;;;10.54;100.00;98975.41;7386511;19;20500;-54
2022/10/28 04:03:06;;;;;;;;;;;;;;;10.64;100.00;98979.31;7392138;19;19918;-53
2022/10/28 04:05:39;;;;;;;;;;;;;;;10.42;100.00;98986.50;7390641;19;19927;-54
2022/10/28 04:08:15;;;;;;;;;;;;;;;10.62;100.00;98992.53;7391851;19;19926;-57
2022/10/28 04:10:48;;;;;;;;;;;;;;;10.23;100.00;98998.81;7392451;19;20246;-53
2022/10/28 04:13:22;;;;;;;;;;;;;;;10.46;100.00;98993.34;7385726;19;20288;-52
2022/10/28 04:15:55;;;;;;;;;;;;;;;10.49;100.00;98995.81;7391410;19;19939;-53
2022/10/28 04:18:28;;;;;;;;;;;;;;;10.26;100.00;98996.88;7392652;19;20249;-56
2022/10/28 04:21:00;;;;;;;;;;;;;;;10.44;100.00;98992.56;7389238;19;20334;-53
2022/10/28 04:23:36;;;;;;;;;;;;;;;10.36;100.00;98989.44;7389666;19;19930;-53
2022/10/28 04:26:08;;;;;;;;;;;;;;;10.02;100.00;98976.13;7383785;19;19915;-54
2022/10/28 04:28:44;;;;;;;;;;;;;;;9.84;100.00;98979.59;7390655;19;20319;-57
2022/10/28 04:31:17;;;;;;;;;;;;;;;9.98;100.00;98967.56;7391937;19;19929;-54
2022/10/28 04:33:50;;;;;;;;;;;;;;;10.20;100.00;98964.78;7391010;19;19922;-57
2022/10/28 04:36:23;;;;;;;;;;;;;;;9.85;100.00;98961.16;7392800;19;19923;-54
2022/10/28 04:38:58;;;;;;;;;;;;;;;10.37;100.00;98954.34;7382315;19;19914;-57
2022/10/28 04:41:31;;;;;;;;;;;;;;;10.12;100.00;98966.91;7387638;19;19915;-53
2022/10/28 04:44:03;;;;;;;;;;;;;;;10.09;100.00;98967.06;7389926;19;20356;-56
2022/10/28 04:46:38;;;;;;;;;;;;;;;10.26;100.00;98961.88;7389525;19;20223;-50
2022/10/28 04:49:11;;;;;;;;;;;;;;;10.24;100.00;98963.72;7390701;19;19925;-55
2022/10/28 04:51:44;;;;;;;;;;;;;;;10.19;100.00;98968.34;7385866;19;19918;-56
2022/10/28 04:54:19;;;;;;;;;;;;;;;9.89;100.00;98967.13;7383787;19;19915;-54
2022/10/28 04:56:52;;;;;;;;;;;;;;;10.05;100.00;98969.00;7389704;19;19918;-54
2022/10/28 04:59:27;;;;;;;;;;;;;;;10.04;100.00;98974.31;7389816;19;20405;-53
2022/10/28 05:02:00;;;;;;;;;;;;;;;10.00;100.00;98965.69;7388174;19;19919;-53
2022/10/28 05:04:33;;;;;;;;;;;;;;;9.87;100.00;98961.94;7387338;19;19919;-60
2022/10/28 05:07:06;;;;;;;;;;;;;;;9.89;100.00;98957.44;7391792;19;19931;-50
2022/10/28 05:09:41;;;;;;;;;;;;;;;9.75;100.00;98951.13;7391856;19;20227;-54
2022/10/28 05:12:14;;;;;;;;;;;;;;;9.75;100.00;98943.25;7385423;19;19915;-54
2022/10/28 05:14:47;;;;;;;;;;;;;;;9.80;100.00;98942.13;7391033;19;19925;-54
2022/10/28 05:17:20;;;;;;;;;;;;;;;9.58;100.00;98940.50;7389696;19;19939;-58
2022/10/28 05:19:52;;;;;;;;;;;;;;;9.44;100.00;98945.53;7389844;19;20328;-56
2022/10/28 05:22:25;;;;;;;;;;;;;;;9.78;100.00;98935.25;7390590;19;19939;-53
2022/10/28 05:25:01;;;;;;;;;;;;;;;9.86;100.00;98939.22;7384220;19;19923;-54
2022/10/28 05:27:33;;;;;;;;;;;;;;;9.89;100.00;98936.44;7389421;19;19929;-54
2022/10/28 05:30:06;;;;;;;;;;;;;;;9.73;100.00;98939.81;7391406;19;19978;-50
2022/10/28 05:32:39;;;;;;;;;;;;;;;9.69;100.00;98939.13;7388206;19;20791;-54
2022/10/28 05:35:13;;;;;;;;;;;;;;;9.88;100.00;98949.63;7390907;19;19986;-54
2022/10/28 05:37:46;;;;;;;;;;;;;;;10.00;100.00;98943.84;7384092;19;20328;-53
2022/10/28 05:40:21;;;;;;;;;;;;;;;9.91;100.00;98946.88;7390277;19;20335;-53
2022/10/28 05:42:54;;;;;;;;;;;;;;;10.02;100.00;98947.25;7390758;19;19923;-52
2022/10/28 05:45:27;;;;;;;;;;;;;;;9.80;100.00;98943.88;7389021;19;19970;-51
2022/10/28 05:48:00;;;;;;;;;;;;;;;9.99;100.00;98944.75;7388083;19;19964;-55
2022/10/28 05:50:35;;;;;;;;;;;;;;;10.12;100.00;98949.38;7381843;19;20231;-57
2022/10/28 05:53:08;;;;;;;;;;;;;;;10.20;100.00;98956.91;7388940;19;19922;-55
2022/10/28 05:55:44;;;;;;;;;;;;;;;10.04;100.00;98958.53;7387836;19;20303;-55
2022/10/28 05:58:16;;;;;;;;;;;;;;;9.90;100.00;98964.44;7388512;19;19996;-55
2022/10/28 06:00:49;;;;;;;;;;;;;;;10.00;100.00;98964.88;7387165;19;19915;-54
2022/10/28 06:03:22;;;;;;;;;;;;;;;9.75;100.00;98966.91;7385587;19;19990;-57
2022/10/28 06:05:54;;;;;;;;;;;;;;;10.05;100.00;98961.09;7389098;19;20355;-56
2022/10/28 06:08:27;;;;;;;;;;;;;;;10.06;100.00;98951.44;7390649;19;19922;-52
2022/10/28 06:11:03;;;;;;;;;;;;;;;10.09;100.00;98953.91;7382665;19;19925;-55
2022/10/28 06:13:35;;;;;;;;;;;;;;;9.95;100.00;98956.31;7387757;19;19967;-54
2022/10/28 06:16:08;;;;;;;;;;;;;;;9.93;100.00;98948.50;7385375;19;19918;-59
2022/10/28 06:18:41;;;;;;;;;;;;;;;9.91;100.00;98954.75;7390114;19;20639;-54
2022/10/28 06:21:13;;;;;;;;;;;;;;;9.85;100.00;98949.81;7386901;19;19907;-59
2022/10/28 06:23:46;;;;;;;;;;;;;;;9.98;100.00;98956.19;7382792;19;19923;-53
2022/10/28 06:26:22;;;;;;;;;;;;;;;9.87;100.00;98958.44;7387862;19;19915;-57
2022/10/28 06:28:55;;;;;;;;;;;;;;;9.85;100.00;98961.16;7390066;19;20245;-55
2022/10/28 06:31:28;;;;;;;;;;;;;;;9.96;100.00;98958.06;7388414;19;19907;-56
2022/10/28 06:34:04;;;;;;;;;;;;;;;9.94;100.00;98965.13;7385627;19;19939;-55
2022/10/28 06:36:37;;;;;;;;;;;;;;;10.25;100.00;98962.81;7383307;19;19918;-55
2022/10/28 06:39:10;;;;;;;;;;;;;;;10.18;100.00;98956.13;7387069;19;19918;-54
2022/10/28 06:41:46;;;;;;;;;;;;;;;10.33;100.00;98953.63;7383900;19;19926;-53
2022/10/28 06:44:18;;;;;;;;;;;;;;;10.01;100.00;98956.06;7385152;19;20317;-51
2022/10/28 06:46:51;;;;;;;;;;;;;;;10.09;100.00;98961.81;7384502;19;20258;-51
2022/10/28 06:49:24;;;;;;;;;;;;;;;10.35;100.00;98970.19;7389422;19;19926;-53
2022/10/28 06:51:56;;;;;;;;;;;;;;;10.12;100.00;98980.06;7394186;19;19919;-52
2022/10/28 06:54:29;;;;;;;;;;;;;;;10.49;100.00;98975.66;7393616;19;19911;-54
2022/10/28 06:57:07;;;;;;;;;;;;;;;10.47;100.00;98972.22;7391584;19;20416;-58
2022/10/28 06:59:40;;;;;;;;;;;;;;;10.28;100.00;98973.16;7394882;19;19939;-53
2022/10/28 07:02:15;;;;;;;;;;;;;;;10.40;100.00;98977.88;7382099;19;19915;-56
2022/10/28 07:04:48;;;;;;;;;;;;;;;10.30;100.00;98987.97;7389968;19;19907;-50
2022/10/28 07:07:20;;;;;;;;;;;;;;;10.57;100.00;98980.53;7392789;19;19919;-52
2022/10/28 07:09:53;;;;;;;;;;;;;;;10.57;100.00;98972.63;7391702;19;19926;-58
2022/10/28 07:12:29;;;;;;;;;;;;;;;10.62;100.00;98978.53;7393873;19;20328;-56
2022/10/28 07:15:01;;;;;;;;;;;;;;;10.82;100.00;98974.03;7387533;19;20251;-57
2022/10/28 07:17:34;;;;;;;;;;;;;;;10.65;100.00;98975.75;7393759;19;19931;-57
2022/10/28 07:20:07;;;;;;;;;;;;;;;10.70;100.00;98977.22;7393103;19;19928;-56
2022/10/28 07:22:40;;;;;;;;;;;;;;;10.98;100.00;98969.72;7383253;19;19915;-54
2022/10/28 07:25:13;;;;;;;;;;;;;;;11.02;100.00;98980.94;7393804;19;20231;-56
2022/10/28 07:27:48;;;;;;;;;;;;;;;10.90;100.00;98985.00;7390669;19;19930;-52
2022/10/28 07:30:21;;;;;;;;;;;;;;;11.00;100.00;98982.81;7393163;19;19911;-52
2022/10/28 07:32:54;;;;;;;;;;;;;;;11.20;100.00;98977.38;7389217;19;20323;-57
2022/10/28 07:35:27;;;;;;;;;;;;;;;10.97;100.00;98981.16;7387065;19;19919;-56
2022/10/28 07:37:59;;;;;;;;;;;;;;;11.11;100.00;98975.22;7392112;19;20355;-52
2022/10/28 07:40:32;;;;;;;;;;;;;;;10.98;100.00;98979.38;7394001;19;20342;-57
2022/10/28 07:43:08;;;;;;;;;;;;;;;11.18;100.00;98984.53;7390644;19;19906;-52
2022/10/28 07:45:41;;;;;;;;;;;;;;;10.98;100.00;98998.69;7390702;19;19915;-53
2022/10/28 07:48:15;;;;;;;;;;;;;;;11.35;100.00;98990.63;7384387;19;19923;-53
2022/10/28 07:50:47;;;;;;;;;;;;;;;11.30;100.00;98990.03;7391575;19;20378;-51
2022/10/28 07:53:20;;;;;;;;;;;;;;;11.34;100.00;98994.22;7393050;19;19939;-57
2022/10/28 07:56:00;;;;;;;;;;;;;;;11.46;100.00;98992.72;7389256;19;19982;-55
2022/10/28 07:58:35;;;;;;;;;;;;;;;11.38;100.00;98984.34;7388274;19;19914;-56
2022/10/28 08:01:09;;;;;;;;;;;;;;;11.71;100.00;98984.41;7385795;19;20247;-54
2022/10/28 08:03:42;;;;;;;;;;;;;;;11.69;100.00;98984.50;7391289;19;19915;-58
2022/10/28 08:06:16;;;;;;;;;;;;;;;11.47;100.00;98978.63;7387351;19;19952;-58
2022/10/28 08:08:49;;;;;;;;;;;;;;;11.66;100.00;98993.38;7391286;19;20244;-56
2022/10/28 08:11:23;;;;;;;;;;;;;;;11.84;100.00;98983.69;7391510;19;19915;-56
2022/10/28 08:13:59;;;;;;;;;;;;;;;11.41;100.00;98979.81;7386209;19;19919;-55
2022/10/28 08:16:32;;;;;;;;;;;;;;;11.75;100.00;98983.31;7390577;19;19915;-54
2022/10/28 08:19:04;;;;;;;;;;;;;;;11.76;100.00;98991.16;7388402;19;19907;-57
2022/10/28 08:21:37;;;;;;;;;;;;;;;11.81;100.00;98975.94;7390190;19;20373;-55
2022/10/28 08:24:10;;;;;;;;;;;;;;;11.84;100.00;98973.13;7388212;19;19923;-54
2022/10/28 08:26:43;;;;;;;;;;;;;;;12.03;100.00;98971.22;7385749;19;19939;-53
2022/10/28 08:29:18;;;;;;;;;;;;;;;12.16;100.00;98966.97;7391134;19;19943;-53
2022/10/28 08:31:51;;;;;;;;;;;;;;;12.21;100.00;98964.94;7390450;19;19925;-54
2022/10/28 08:34:28;;;;;;;;;;;;;;;12.22;100.00;98973.72;7387821;19;19914;-58
2022/10/28 08:37:00;;;;;;;;;;;;;;;12.16;100.00;98960.88;7391481;19;20335;-58
2022/10/28 08:39:33;;;;;;;;;;;;;;;12.09;100.00;98962.13;7383442;19;19922;-54
2022/10/28 08:42:13;;;;;;;;;;;;;;;12.12;100.00;98957.53;7388540;19;19974;-58
2022/10/28 08:45:02;;;;;;;;;;;;;;;12.24;100.00;98956.91;7388469;19;19970;-58
2022/10/28 08:47:41;;;;;;;;;;;;;;;12.53;100.00;98960.56;7388796;19;19915;-58
2022/10/28 08:50:18;;;;;;;;;;;;;;;12.63;100.00;98946.75;7384515;19;19919;-57
2022/10/28 08:52:54;;;;;;;;;;;;;;;12.41;100.00;98951.53;7390134;19;20319;-51
2022/10/28 08:55:30;;;;;;;;;;;;;;;12.43;100.00;98946.16;7386895;19;19918;-58
2022/10/28 08:58:05;;;;;;;;;;;;;;;12.52;100.00;98943.88;7389869;19;20426;-59
2022/10/28 09:00:42;;;;;;;;;;;;;;;12.65;100.00;98939.63;7388240;19;19915;-54
2022/10/28 09:03:21;;;;;;;;;;;;;;;12.83;100.00;98933.28;7382694;19;19915;-49
2022/10/28 09:05:59;;;;;;;;;;;;;;;12.73;100.00;98936.50;7386281;19;19911;-50
2022/10/28 09:08:36;;;;;;;;;;;;;;;12.83;100.00;98930.63;7387299;19;19914;-57
2022/10/28 09:11:18;;;;;;;;;;;;;;;12.83;100.00;98932.41;7389417;19;19918;-58
2022/10/28 09:13:56;;;;;;;;;;;;;;;13.09;100.00;98937.91;7383204;19;19914;-52
2022/10/28 09:16:39;;;;;;;;;;;;;;;13.21;100.00;98926.59;7389305;19;19922;-53
2022/10/28 09:19:40;;;;;;;;;;;;;;;13.20;100.00;98930.19;7387583;19;19945;-55
2022/10/28 09:22:18;;;;;;;;;;;;;;;13.22;100.00;98930.94;7385043;19;20255;-59
2022/10/28 09:24:55;;;;;;;;;;;;;;;13.24;100.00;98926.41;7388194;19;19988;-58
2022/10/28 09:27:42;;;;;;;;;;;;;;;13.41;100.00;98934.19;7384566;19;19914;-59
2022/10/28 09:30:28;;;;;;;;;;;;;;;13.44;100.00;98934.03;7386261;19;19911;-56
2022/10/28 09:33:08;;;;;;;;;;;;;;;13.65;100.00;98926.59;7382375;19;19935;-53
2022/10/28 09:36:00;;;;;;;;;;;;;;;13.53;100.00;98933.47;7387406;19;19921;-57
2022/10/28 09:38:33;;;;;;;;;;;;;;;13.76;100.00;98926.78;7386296;19;19911;-51
2022/10/28 09:41:27;;;;;;;;;;;;;;;13.59;100.00;98922.53;7388193;19;19926;-61
2022/10/28 09:44:02;;;;;;;;;;;;;;;13.57;100.00;98929.72;7385513;19;19907;-57
2022/10/28 09:46:56;;;;;;;;;;;;;;;13.66;100.00;98931.78;7383176;19;20456;-57
2022/10/28 09:49:34;;;;;;;;;;;;;;;13.66;100.00;98931.78;7383538;19;20323;-58
2022/10/28 09:52:10;;;;;;;;;;;;;;;13.80;100.00;98939.72;7382791;19;19922;-59
2022/10/28 09:54:45;;;;;;;;;;;;;;;13.74;100.00;98941.91;7387113;19;20347;-55
2022/10/28 09:57:18;;;;;;;;;;;;;;;13.69;100.00;98934.25;7386956;19;20275;-56
2022/10/28 09:59:51;;;;;;;;;;;;;;;13.82;100.00;98924.59;7384086;19;19943;-56
2022/10/28 10:02:32;;;;;;;;;;;;;;;13.98;100.00;98935.06;7386537;19;19919;-56
2022/10/28 10:05:08;;;;;;;;;;;;;;;13.84;100.00;98941.22;7382753;19;20402;-56
2022/10/28 10:07:43;;;;;;;;;;;;;;;14.08;100.00;98937.06;7385761;19;19907;-56
2022/10/28 10:10:18;;;;;;;;;;;;;;;14.14;100.00;98938.44;7387186;19;19915;-60
2022/10/28 10:12:53;;;;;;;;;;;;;;;14.26;100.00;98933.22;7384853;19;19919;-51
2022/10/28 10:15:30;;;;;;;;;;;;;;;14.27;100.00;98937.59;7387985;19;19982;-55
2022/10/28 10:18:03;;;;;;;;;;;;;;;14.30;100.00;98934.72;7382318;19;19918;-52
2022/10/28 10:20:51;;;;;;;;;;;;;;;14.37;100.00;98935.22;7385330;19;19907;-55
2022/10/28 10:23:28;;;;;;;;;;;;;;;14.57;100.00;98927.72;7379035;19;19918;-57
2022/10/28 10:26:19;;;;;;;;;;;;;;;14.39;100.00;98931.53;7386071;19;19945;-59
2022/10/28 10:28:53;;;;;;;;;;;;;;;14.58;100.00;98926.75;7384943;19;19911;-58
2022/10/28 10:31:28;;;;;;;;;;;;;;;14.67;100.00;98925.31;7386856;19;20008;-58
2022/10/28 10:34:02;;;;;;;;;;;;;;;14.75;100.00;98928.31;7378837;19;19918;-58
2022/10/28 10:36:38;;;;;;;;;;;;;;;14.61;100.00;98923.94;7387059;19;19947;-58
2022/10/28 10:39:25;;;;;;;;;;;;;;;14.74;100.00;98924.81;7382442;19;19918;-58
2022/10/28 10:42:24;;;;;;;;;;;;;;;14.71;100.00;98909.16;7385922;19;20000;-59
2022/10/28 10:45:02;;;;;;;;;;;;;;;14.91;100.00;98915.75;7387284;19;19911;-58
2022/10/28 10:47:35;;;;;;;;;;;;;;;14.96;100.00;98910.16;7386626;19;19923;-58
2022/10/28 10:50:23;;;;;;;;;;;;;;;14.90;100.00;98906.09;7382466;19;20346;-59
2022/10/28 10:53:03;;;;;;;;;;;;;;;15.59;100.00;98908.44;7384804;19;19911;-59
2022/10/28 10:55:40;;;;;;;;;;;;;;;15.15;100.00;98902.66;7385867;19;19911;-59
2022/10/28 10:58:21;;;;;;;;;;;;;;;15.34;100.00;98905.75;7384789;19;19919;-58
2022/10/28 11:00:56;;;;;;;;;;;;;;;15.29;100.00;98902.56;7385625;19;20284;-55
2022/10/28 11:03:31;;;;;;;;;;;;;;;15.30;100.00;98906.91;7382802;19;19941;-58
2022/10/28 11:06:25;;;;;;;;;;;;;;;15.14;100.00;98911.56;7385864;19;19999;-58
2022/10/28 11:09:05;;;;;;;;;;;;;;;15.32;100.00;98905.88;7386460;19;19919;-56
2022/10/28 11:11:38;;;;;;;;;;;;;;;15.46;100.00;98902.31;7385897;19;19922;-57
2022/10/28 11:14:12;;;;;;;;;;;;;;;15.53;100.00;98900.94;7382465;19;19915;-56
2022/10/28 11:16:54;;;;;;;;;;;;;;;15.69;100.00;98896.25;7381083;19;19935;-57
2022/10/28 11:19:46;;;;;;;;;;;;;;;15.70;100.00;98892.66;7385128;19;19926;-58
2022/10/28 11:22:26;;;;;;;;;;;;;;;15.67;100.00;98895.50;7384433;19;19926;-58
2022/10/28 11:25:14;;;;;;;;;;;;;;;15.75;100.00;98895.84;7387168;19;19919;-58
2022/10/28 11:27:55;;;;;;;;;;;;;;;15.81;100.00;98900.69;7386738;19;19922;-56
2022/10/28 11:30:32;;;;;;;;;;;;;;;15.70;100.00;98892.66;7385203;19;19918;-58
2022/10/28 11:33:08;;;;;;;;;;;;;;;15.58;100.00;98896.16;7386391;19;19932;-56
2022/10/28 11:35:48;;;;;;;;;;;;;;;15.47;100.00;98896.91;7390324;19;19927;-58
2022/10/28 11:38:32;;;;;;;;;;;;;;;15.58;100.00;98898.81;7394338;19;19914;-56
2022/10/28 11:41:29;;;;;;;;;;;;;;;15.63;100.00;98899.31;7388029;19;19961;-58
2022/10/28 11:44:05;;;;;;;;;;;;;;;15.35;100.00;98902.16;7388380;19;19925;-58
2022/10/28 11:47:01;;;;;;;;;;;;;;;15.35;100.00;98902.16;7391863;19;20294;-58
2022/10/28 11:50:09;;;;;;;;;;;;;;;15.46;100.00;98894.38;7387065;19;19921;-57
2022/10/28 11:53:18;;;;;;;;;;;;;;;15.34;100.00;98897.81;7385814;19;20251;-58
2022/10/28 11:55:53;;;;;;;;;;;;;;;15.43;100.00;98895.44;7389851;19;19967;-58
2022/10/28 11:58:33;;;;;;;;;;;;;;;15.86;100.00;98888.81;7385054;19;19921;-58
2022/10/28 12:01:14;;;;;;;;;;;;;;;15.43;100.00;98890.13;7391311;19;19922;-54
2022/10/28 12:04:02;;;;;;;;;;;;;;;15.46;100.00;98886.41;7383763;19;19919;-56
2022/10/28 12:06:44;;;;;;;;;;;;;;;15.26;100.00;98890.38;7388175;19;19918;-58
2022/10/28 12:09:22;;;;;;;;;;;;;;;15.48;100.00;98876.53;7390047;19;19978;-57
2022/10/28 12:12:01;;;;;;;;;;;;;;;15.18;100.00;98884.78;7390282;19;19927;-56
2022/10/28 12:14:38;;;;;;;;;;;;;;;15.64;100.00;98877.19;7385356;19;19925;-58
2022/10/28 12:17:19;;;;;;;;;;;;;;;15.41;100.00;98881.41;7390905;19;19922;-58
2022/10/28 12:19:53;;;;;;;;;;;;;;;15.44;100.00;98885.66;7383111;19;19934;-56
2022/10/28 12:22:29;;;;;;;;;;;;;;;15.67;100.00;98876.94;7387656;19;20353;-58
2022/10/28 12:25:23;;;;;;;;;;;;;;;15.59;100.00;98872.19;7389021;19;20033;-58
2022/10/28 12:27:58;;;;;;;;;;;;;;;15.64;100.00;98870.06;7388991;19;20259;-57
2022/10/28 12:30:32;;;;;;;;;;;;;;;15.75;100.00;98867.50;7383837;19;20540;-58
2022/10/28 12:33:12;;;;;;;;;;;;;;;15.72;100.00;98862.41;7387862;19;20298;-59
2022/10/28 12:35:47;;;;;;;;;;;;;;;15.55;100.00;98851.28;7384155;19;19915;-60
2022/10/28 12:38:42;;;;;;;;;;;;;;;15.71;100.00;98851.91;7390482;19;19957;-58
2022/10/28 12:41:18;;;;;;;;;;;;;;;15.64;100.00;98851.50;7382065;19;19917;-58
2022/10/28 12:44:15;;;;;;;;;;;;;;;15.64;100.00;98850.66;7385906;19;19929;-56
2022/10/28 12:46:52;;;;;;;;;;;;;;;15.56;100.00;98852.97;7386273;19;19923;-58
2022/10/28 12:49:31;;;;;;;;;;;;;;;15.52;100.00;98857.66;7382333;19;19922;-57
2022/10/28 12:52:08;;;;;;;;;;;;;;;15.47;100.00;98853.63;7385382;19;20410;-58
2022/10/28 12:54:47;;;;;;;;;;;;;;;15.59;100.00;98855.41;7383303;19;19915;-58
2022/10/28 12:57:22;;;;;;;;;;;;;;;15.65;100.00;98849.69;7378598;19;19925;-58
2022/10/28 13:00:21;;;;;;;;;;;;;;;15.39;100.00;98845.34;7383959;19;19921;-58
2022/10/28 13:03:13;;;;;;;;;;;;;;;15.42;100.00;98855.78;7382269;19;19938;-58
2022/10/28 13:05:51;;;;;;;;;;;;;;;15.39;100.00;98853.28;7372946;19;20236;-58
2022/10/28 13:08:39;;;;;;;;;;;;;;;15.41;100.00;98846.06;7383306;19;19975;-57
2022/10/28 13:11:40;;;;;;;;;;;;;;;15.39;100.00;98842.69;7381326;19;19921;-57
2022/10/28 13:14:20;;;;;;;;;;;;;;;15.37;100.00;98831.34;7375242;19;19923;-59
2022/10/28 13:17:02;;;;;;;;;;;;;;;15.29;100.00;98829.25;7379289;19;20378;-59
2022/10/28 13:19:43;;;;;;;;;;;;;;;15.41;100.00;98825.75;7375402;19;19919;-60
2022/10/28 13:22:29;;;;;;;;;;;;;;;15.37;100.00;98826.03;7379191;19;20285;-58
2022/10/28 13:25:06;;;;;;;;;;;;;;;15.50;100.00;98825.09;7376172;19;19915;-56
2022/10/28 13:28:01;;;;;;;;;;;;;;;15.45;100.00;98829.03;7371549;19;19922;-60